createdAt,value
2023-03-31T00:02:02.592Z,100894.84
2023-03-31T00:07:01.387Z,100883.50
2023-03-31T00:12:00.451Z,100874.41
2023-03-31T00:16:59.379Z,100868.88
2023-03-31T00:22:02.122Z,100864.66
2023-03-31T00:27:01.209Z,100868.22
2023-03-31T00:32:00.084Z,100843.03
2023-03-31T00:37:02.762Z,100845.38
2023-03-31T00:42:03.917Z,100852.59
2023-03-31T00:47:07.183Z,100839.75
2023-03-31T00:52:13.814Z,100837.59
2023-03-31T00:57:14.341Z,100846.03
2023-03-31T01:02:15.753Z,100836.13
2023-03-31T01:07:24.116Z,100835.84
2023-03-31T01:12:24.147Z,100834.13
2023-03-31T01:17:25.507Z,100819.31
2023-03-31T01:23:00.582Z,100808.81
2023-03-31T01:28:12.211Z,100807.03
2023-03-31T01:33:47.812Z,100801.84
2023-03-31T01:39:31.790Z,100783.50
2023-03-31T01:44:41.138Z,100785.38
2023-03-31T01:49:47.698Z,100790.63
2023-03-31T01:54:52.216Z,100790.63
2023-03-31T01:59:57.608Z,100789.97
2023-03-31T02:05:00.947Z,100775.81
2023-03-31T02:10:01.663Z,100783.34
2023-03-31T02:15:05.762Z,100782.97
2023-03-31T02:20:09.097Z,100780.03
2023-03-31T02:25:11.844Z,100771.28
2023-03-31T02:30:14.269Z,100768.00
2023-03-31T02:35:16.412Z,100757.50
2023-03-31T02:40:19.912Z,100743.41
2023-03-31T02:45:37.150Z,100745.88
2023-03-31T02:50:52.578Z,100757.81
2023-03-31T02:56:05.182Z,100749.75
2023-03-31T03:01:34.130Z,100763.53
2023-03-31T03:06:43.420Z,100763.16
2023-03-31T03:11:57.979Z,100756.25
2023-03-31T03:17:02.566Z,100770.41
2023-03-31T03:22:03.072Z,100768.66
2023-03-31T03:27:02.343Z,100767.16
2023-03-31T03:32:01.132Z,100771.63
2023-03-31T03:36:59.831Z,100774.41
2023-03-31T03:42:00.140Z,100780.69
2023-03-31T03:46:59.010Z,100785.50
2023-03-31T03:51:58.027Z,100784.94
2023-03-31T03:56:56.919Z,100788.97
2023-03-31T04:01:57.010Z,100799.03
2023-03-31T04:06:55.860Z,100806.13
2023-03-31T04:11:54.770Z,100801.69
2023-03-31T04:16:56.472Z,100790.03
2023-03-31T04:22:03.119Z,100791.50
2023-03-31T04:27:03.295Z,100784.97
2023-03-31T04:32:03.004Z,100804.00
2023-03-31T04:37:03.972Z,100800.44
2023-03-31T04:42:02.798Z,100796.13
2023-03-31T04:47:03.274Z,100789.81
2023-03-31T04:52:03.492Z,100786.66
2023-03-31T04:57:02.304Z,100789.63
2023-03-31T05:02:01.132Z,100788.75
2023-03-31T05:07:00.352Z,100780.63
2023-03-31T05:12:01.220Z,100775.31
2023-03-31T05:17:00.206Z,100778.88
2023-03-31T05:21:59.028Z,100770.72
2023-03-31T05:26:57.800Z,100767.50
2023-03-31T05:31:58.227Z,100755.63
2023-03-31T05:37:00.373Z,100765.81
2023-03-31T05:41:59.196Z,100771.75
2023-03-31T05:46:59.441Z,100771.50
2023-03-31T05:51:58.153Z,100767.91
2023-03-31T05:56:56.996Z,100759.56
2023-03-31T06:01:55.991Z,100751.84
2023-03-31T06:06:58.304Z,100751.94
2023-03-31T06:11:57.444Z,100749.81
2023-03-31T06:16:57.743Z,100745.56
2023-03-31T06:21:58.149Z,100736.00
2023-03-31T06:26:56.855Z,100739.13
2023-03-31T06:31:55.550Z,100747.03
2023-03-31T06:36:54.652Z,100738.13
2023-03-31T06:41:56.452Z,100731.53
2023-03-31T06:46:59.540Z,100730.19
2023-03-31T06:51:58.295Z,100730.44
2023-03-31T06:56:58.933Z,100720.31
2023-03-31T07:01:57.678Z,100718.53
2023-03-31T07:07:03.417Z,100696.84
2023-03-31T07:12:05.491Z,100687.06
2023-03-31T07:17:04.757Z,100692.97
2023-03-31T07:22:03.508Z,100681.91
2023-03-31T07:27:04.059Z,100679.69
2023-03-31T07:32:02.995Z,100684.78
2023-03-31T07:37:01.980Z,100666.00
2023-03-31T07:42:01.299Z,100656.16
2023-03-31T07:47:04.581Z,100655.41
2023-03-31T07:52:03.812Z,100649.00
2023-03-31T07:57:06.276Z,100622.81
2023-03-31T08:02:06.681Z,100608.06
2023-03-31T08:07:06.644Z,100602.88
2023-03-31T08:12:05.920Z,100601.47
2023-03-31T08:17:06.708Z,100589.94
2023-03-31T08:22:05.728Z,100572.53
2023-03-31T08:27:04.716Z,100559.66
2023-03-31T08:32:03.841Z,100561.41
2023-03-31T08:37:05.703Z,100551.28
2023-03-31T08:42:14.685Z,100533.03
2023-03-31T08:47:19.909Z,100534.72
2023-03-31T08:52:24.724Z,100522.09
2023-03-31T08:57:27.321Z,100503.84
2023-03-31T09:02:34.121Z,100504.69
2023-03-31T09:07:44.579Z,100499.88
2023-03-31T09:12:53.706Z,100483.75
2023-03-31T09:17:55.811Z,100487.34
2023-03-31T09:23:03.107Z,100473.69
2023-03-31T09:28:05.036Z,100486.13
2023-03-31T09:33:34.909Z,100470.28
2023-03-31T09:38:36.046Z,100451.91
2023-03-31T09:43:36.397Z,100439.69
2023-03-31T09:48:37.302Z,100441.63
2023-03-31T09:53:47.339Z,100431.16
2023-03-31T09:58:47.451Z,100430.59
2023-03-31T10:03:51.883Z,100431.94
2023-03-31T10:08:58.674Z,100423.84
2023-03-31T10:14:03.513Z,100431.16
2023-03-31T10:19:20.405Z,100412.78
2023-03-31T10:24:52.138Z,100412.31
2023-03-31T10:30:23.709Z,100428.72
2023-03-31T10:36:43.768Z,100410.75
2023-03-31T10:42:13.638Z,100393.38
2023-03-31T10:47:21.248Z,100382.25
2023-03-31T10:52:23.212Z,100400.13
2023-03-31T10:57:35.558Z,100375.56
2023-03-31T11:02:56.235Z,100345.41
2023-03-31T11:08:06.922Z,100334.13
2023-03-31T11:13:53.866Z,100330.09
2023-03-31T11:19:17.202Z,100320.13
2023-03-31T11:24:36.441Z,100314.72
2023-03-31T11:29:51.625Z,100297.59
2023-03-31T11:41:27.551Z,100305.00
2023-03-31T11:46:34.030Z,100299.47
2023-03-31T11:51:43.146Z,100292.38
2023-03-31T11:56:47.517Z,100295.22
2023-03-31T12:01:53.120Z,100298.22
2023-03-31T12:07:01.288Z,100283.38
2023-03-31T12:12:10.938Z,100278.94
2023-03-31T12:17:19.917Z,100266.13
2023-03-31T12:29:00.106Z,100254.09
2023-03-31T12:34:09.892Z,100254.53
2023-03-31T12:39:26.809Z,100251.03
2023-03-31T12:45:13.731Z,100228.03
2023-03-31T12:51:00.257Z,100221.56
2023-03-31T12:56:06.619Z,100225.69
2023-03-31T13:01:23.228Z,100200.47
2023-03-31T13:20:39.651Z,100183.50
2023-03-31T13:32:21.878Z,100177.72
2023-03-31T13:37:37.374Z,100178.09
2023-03-31T13:54:43.533Z,100151.47
2023-03-31T14:00:17.869Z,100144.44
2023-03-31T14:06:17.390Z,100143.78
2023-03-31T14:12:04.607Z,100133.91
2023-03-31T14:24:33.458Z,100121.63
2023-03-31T14:29:42.832Z,100115.53
2023-03-31T14:34:57.606Z,100116.22
2023-03-31T14:39:59.197Z,100107.81
2023-03-31T14:45:04.050Z,100112.84
2023-03-31T14:50:07.651Z,100108.47
2023-03-31T14:55:08.351Z,100103.13
2023-03-31T15:00:16.004Z,100108.50
2023-03-31T15:05:27.905Z,100103.44
2023-03-31T15:10:27.319Z,100118.94
2023-03-31T15:15:28.675Z,100105.16
2023-03-31T15:20:35.029Z,100128.94
2023-03-31T15:25:41.222Z,100114.09
2023-03-31T15:30:42.376Z,100109.69
2023-03-31T15:35:42.770Z,100114.03
2023-03-31T15:40:47.905Z,100118.06
2023-03-31T15:45:51.989Z,100118.25
2023-03-31T15:50:55.034Z,100119.22
2023-03-31T15:55:59.148Z,100120.66
2023-03-31T16:01:06.783Z,100124.59
2023-03-31T16:06:11.749Z,100109.91
2023-03-31T16:11:18.805Z,100116.03
2023-03-31T16:16:23.415Z,100120.63
2023-03-31T16:21:26.874Z,100133.63
2023-03-31T16:26:31.388Z,100125.59
2023-03-31T16:31:39.606Z,100125.66
2023-03-31T16:36:42.252Z,100128.75
2023-03-31T16:41:43.838Z,100124.13
2023-03-31T16:46:47.274Z,100136.72
2023-03-31T16:51:46.937Z,100131.88
2023-03-31T16:56:48.139Z,100145.94
2023-03-31T17:01:48.822Z,100141.34
2023-03-31T17:06:52.239Z,100148.94
2023-03-31T17:11:51.602Z,100147.97
2023-03-31T17:16:53.006Z,100152.88
2023-03-31T17:21:52.680Z,100155.09
2023-03-31T17:26:51.736Z,100155.59
2023-03-31T17:31:52.228Z,100153.22
2023-03-31T17:36:55.033Z,100160.81
2023-03-31T17:41:54.260Z,100162.47
2023-03-31T17:46:55.916Z,100159.94
2023-03-31T17:51:58.578Z,100160.47
2023-03-31T17:56:57.890Z,100153.72
2023-03-31T18:09:55.539Z,100161.25
2023-03-31T18:14:57.941Z,100160.63
2023-03-31T18:20:17.039Z,100162.13
2023-03-31T18:25:42.303Z,100161.66
2023-03-31T18:31:05.546Z,100149.97
2023-03-31T18:36:07.809Z,100151.28
2023-03-31T18:41:10.324Z,100144.66
2023-03-31T18:46:13.251Z,100141.03
2023-03-31T18:51:17.132Z,100142.13
2023-03-31T18:56:19.780Z,100141.78
2023-03-31T19:01:20.586Z,100138.28
2023-03-31T19:06:22.852Z,100139.13
2023-03-31T19:11:22.336Z,100133.53
2023-03-31T19:16:21.745Z,100130.53
2023-03-31T19:21:22.737Z,100135.03
2023-03-31T19:26:22.922Z,100135.19
2023-03-31T19:31:24.166Z,100144.13
2023-03-31T19:36:26.322Z,100134.34
2023-03-31T19:41:27.840Z,100126.38
2023-03-31T19:46:29.242Z,100125.56
2023-03-31T19:51:30.062Z,100114.00
2023-03-31T19:56:31.654Z,100108.69
2023-03-31T20:01:30.812Z,100112.31
2023-03-31T20:06:32.214Z,100104.84
2023-03-31T20:11:32.474Z,100101.16
2023-03-31T20:16:33.263Z,100091.38
2023-03-31T20:21:36.851Z,100092.09
2023-03-31T20:26:36.303Z,100082.22
2023-03-31T20:31:37.919Z,100083.91
2023-03-31T20:36:42.339Z,100085.25
2023-03-31T20:41:41.939Z,100078.41
2023-03-31T20:46:41.816Z,100074.78
2023-03-31T20:51:45.848Z,100080.31
2023-03-31T20:56:45.795Z,100087.22
2023-03-31T21:01:47.349Z,100093.06
2023-03-31T21:06:49.307Z,100095.59
2023-03-31T21:11:48.927Z,100101.75
2023-03-31T21:16:48.031Z,100092.34
2023-03-31T21:21:51.782Z,100087.66
2023-03-31T21:26:50.942Z,100085.19
2023-03-31T21:31:50.008Z,100087.44
2023-03-31T21:36:51.253Z,100077.94
2023-03-31T21:41:50.008Z,100072.41
2023-03-31T21:46:49.810Z,100070.47
2023-03-31T21:51:51.717Z,100061.78
2023-03-31T21:56:51.265Z,100057.88
2023-03-31T22:01:50.480Z,100044.28
2023-03-31T22:06:51.189Z,100044.28
2023-03-31T22:11:51.145Z,100053.31
2023-03-31T22:16:50.201Z,100042.69
2023-03-31T22:21:50.827Z,100039.72
2023-03-31T22:26:56.312Z,100040.75
2023-03-31T22:31:55.726Z,100031.03
2023-03-31T22:36:56.608Z,100029.09
2023-03-31T22:41:56.619Z,100036.28
2023-03-31T22:46:55.933Z,100039.66
2023-03-31T22:51:56.796Z,100031.59
2023-03-31T22:56:56.067Z,100031.16
2023-03-31T23:01:55.174Z,100020.63
2023-03-31T23:06:55.216Z,100018.09
2023-03-31T23:11:55.947Z,100022.03
2023-03-31T23:16:55.361Z,100025.38
2023-03-31T23:21:54.314Z,100014.34
2023-03-31T23:26:55.761Z,100015.25
2023-03-31T23:31:54.935Z,100009.78
2023-03-31T23:36:53.711Z,99994.00
2023-03-31T23:41:53.603Z,99979.50
2023-03-31T23:46:53.893Z,99969.56
2023-03-31T23:51:52.768Z,99969.72
2023-03-31T23:56:51.642Z,99971.00
